sensor_id;sensor_type;location;lat;lon;timestamp;temperature;humidity
70548;DHT22;58099;43.406;3.698;2023-04-15T08:00:20;15.00;96.70
70548;DHT22;58099;43.406;3.698;2023-04-15T08:02:45;15.10;96.80
70548;DHT22;58099;43.406;3.698;2023-04-15T08:05:12;15.20;96.30
70548;DHT22;58099;43.406;3.698;2023-04-15T08:07:39;15.40;95.90
70548;DHT22;58099;43.406;3.698;2023-04-15T08:10:06;15.60;95.70
70548;DHT22;58099;43.406;3.698;2023-04-15T08:12:32;15.60;95.40
70548;DHT22;58099;43.406;3.698;2023-04-15T08:14:57;15.80;95.40
70548;DHT22;58099;43.406;3.698;2023-04-15T08:17:23;15.90;95.20
70548;DHT22;58099;43.406;3.698;2023-04-15T08:19:49;15.90;95.00
70548;DHT22;58099;43.406;3.698;2023-04-15T08:22:16;16.00;94.70
70548;DHT22;58099;43.406;3.698;2023-04-15T08:24:42;16.10;94.70
70548;DHT22;58099;43.406;3.698;2023-04-15T08:27:07;16.20;94.60
70548;DHT22;58099;43.406;3.698;2023-04-15T08:29:33;16.40;94.60
70548;DHT22;58099;43.406;3.698;2023-04-15T08:31:59;16.70;94.40
70548;DHT22;58099;43.406;3.698;2023-04-15T08:34:26;16.70;94.20
70548;DHT22;58099;43.406;3.698;2023-04-15T08:36:52;16.60;93.70
70548;DHT22;58099;43.406;3.698;2023-04-15T08:39:18;16.60;93.70
70548;DHT22;58099;43.406;3.698;2023-04-15T08:41:47;16.60;93.70
70548;DHT22;58099;43.406;3.698;2023-04-15T08:44:14;16.70;94.10
70548;DHT22;58099;43.406;3.698;2023-04-15T08:46:40;16.80;93.50
70548;DHT22;58099;43.406;3.698;2023-04-15T08:49:11;16.90;93.10
70548;DHT22;58099;43.406;3.698;2023-04-15T08:51:40;17.10;92.90
70548;DHT22;58099;43.406;3.698;2023-04-15T08:54:08;17.20;93.30
70548;DHT22;58099;43.406;3.698;2023-04-15T08:56:34;17.00;92.40
70548;DHT22;58099;43.406;3.698;2023-04-15T08:59:00;17.20;92.20
70548;DHT22;58099;43.406;3.698;2023-04-15T09:01:26;17.20;91.30
70548;DHT22;58099;43.406;3.698;2023-04-15T09:03:53;17.30;90.60
70548;DHT22;58099;43.406;3.698;2023-04-15T09:06:20;17.40;90.30
70548;DHT22;58099;43.406;3.698;2023-04-15T09:08:46;17.60;90.20
70548;DHT22;58099;43.406;3.698;2023-04-15T09:11:12;17.50;89.10
70548;DHT22;58099;43.406;3.698;2023-04-15T09:13:38;17.70;90.00
70548;DHT22;58099;43.406;3.698;2023-04-15T09:16:05;17.60;89.10
70548;DHT22;58099;43.406;3.698;2023-04-15T09:18:32;17.80;89.40
70548;DHT22;58099;43.406;3.698;2023-04-15T09:21:12;17.70;89.00
70548;DHT22;58099;43.406;3.698;2023-04-15T09:23:40;17.80;89.50
70548;DHT22;58099;43.406;3.698;2023-04-15T09:26:06;17.80;89.50
70548;DHT22;58099;43.406;3.698;2023-04-15T09:28:33;18.10;89.80
70548;DHT22;58099;43.406;3.698;2023-04-15T09:31:05;18.40;88.60
70548;DHT22;58099;43.406;3.698;2023-04-15T09:33:32;18.20;86.60
70548;DHT22;58099;43.406;3.698;2023-04-15T09:36:01;18.10;86.30
70548;DHT22;58099;43.406;3.698;2023-04-15T09:38:28;18.00;86.60
70548;DHT22;58099;43.406;3.698;2023-04-15T09:40:54;18.00;86.60
70548;DHT22;58099;43.406;3.698;2023-04-15T09:43:20;18.10;87.30
70548;DHT22;58099;43.406;3.698;2023-04-15T09:45:51;18.20;86.30
70548;DHT22;58099;43.406;3.698;2023-04-15T09:48:26;18.20;86.20
70548;DHT22;58099;43.406;3.698;2023-04-15T09:50:52;18.30;85.90
70548;DHT22;58099;43.406;3.698;2023-04-15T09:53:20;18.20;85.80
70548;DHT22;58099;43.406;3.698;2023-04-15T09:55:54;18.40;86.40
70548;DHT22;58099;43.406;3.698;2023-04-15T09:58:21;18.40;85.40
70548;DHT22;58099;43.406;3.698;2023-04-15T10:00:49;18.50;85.40
70548;DHT22;58099;43.406;3.698;2023-04-15T10:03:22;18.60;84.90
70548;DHT22;58099;43.406;3.698;2023-04-15T10:05:49;18.60;85.40
70548;DHT22;58099;43.406;3.698;2023-04-15T10:08:17;18.90;86.00
70548;DHT22;58099;43.406;3.698;2023-04-15T10:10:45;19.10;84.50
70548;DHT22;58099;43.406;3.698;2023-04-15T10:13:16;19.20;84.50
70548;DHT22;58099;43.406;3.698;2023-04-15T10:15:44;19.10;84.40
70548;DHT22;58099;43.406;3.698;2023-04-15T10:18:15;18.80;84.00
70548;DHT22;58099;43.406;3.698;2023-04-15T10:20:43;18.90;83.30
70548;DHT22;58099;43.406;3.698;2023-04-15T10:23:10;19.10;83.50
70548;DHT22;58099;43.406;3.698;2023-04-15T10:25:37;19.10;82.70
70548;DHT22;58099;43.406;3.698;2023-04-15T10:28:05;19.40;84.20
70548;DHT22;58099;43.406;3.698;2023-04-15T10:30:32;19.50;83.00
70548;DHT22;58099;43.406;3.698;2023-04-15T10:32:59;19.60;82.50
70548;DHT22;58099;43.406;3.698;2023-04-15T10:35:26;19.70;83.00
70548;DHT22;58099;43.406;3.698;2023-04-15T10:37:53;19.60;82.00
70548;DHT22;58099;43.406;3.698;2023-04-15T10:42:57;19.40;81.60
70548;DHT22;58099;43.406;3.698;2023-04-15T10:45:30;19.50;81.00
70548;DHT22;58099;43.406;3.698;2023-04-15T10:48:02;19.50;81.10
70548;DHT22;58099;43.406;3.698;2023-04-15T10:50:32;19.50;81.00
70548;DHT22;58099;43.406;3.698;2023-04-15T10:52:58;19.50;81.30
70548;DHT22;58099;43.406;3.698;2023-04-15T10:55:31;19.60;82.30
70548;DHT22;58099;43.406;3.698;2023-04-15T10:57:59;19.80;82.30
70548;DHT22;58099;43.406;3.698;2023-04-15T11:00:29;19.70;82.80
70548;DHT22;58099;43.406;3.698;2023-04-15T11:03:07;19.80;82.00
70548;DHT22;58099;43.406;3.698;2023-04-15T11:05:55;20.00;81.80
70548;DHT22;58099;43.406;3.698;2023-04-15T11:08:57;20.10;82.00
70548;DHT22;58099;43.406;3.698;2023-04-15T11:14:29;20.30;80.60
70548;DHT22;58099;43.406;3.698;2023-04-15T11:16:54;20.40;79.80
70548;DHT22;58099;43.406;3.698;2023-04-15T11:19:20;20.60;81.50
70548;DHT22;58099;43.406;3.698;2023-04-15T11:21:46;20.70;80.20
70548;DHT22;58099;43.406;3.698;2023-04-15T11:24:23;20.70;79.80
70548;DHT22;58099;43.406;3.698;2023-04-15T11:26:56;20.80;81.10
70548;DHT22;58099;43.406;3.698;2023-04-15T11:29:30;21.10;80.20
70548;DHT22;58099;43.406;3.698;2023-04-15T11:32:08;21.30;80.20
70548;DHT22;58099;43.406;3.698;2023-04-15T11:34:34;21.40;80.30
70548;DHT22;58099;43.406;3.698;2023-04-15T11:37:03;21.30;80.90
70548;DHT22;58099;43.406;3.698;2023-04-15T11:39:30;21.30;80.10
70548;DHT22;58099;43.406;3.698;2023-04-15T11:41:55;21.20;80.70
70548;DHT22;58099;43.406;3.698;2023-04-15T11:44:21;21.10;80.10
70548;DHT22;58099;43.406;3.698;2023-04-15T11:46:47;21.10;79.50
70548;DHT22;58099;43.406;3.698;2023-04-15T11:49:25;21.00;79.90
70548;DHT22;58099;43.406;3.698;2023-04-15T11:51:51;21.20;77.50
70548;DHT22;58099;43.406;3.698;2023-04-15T11:54:20;21.30;77.70
70548;DHT22;58099;43.406;3.698;2023-04-15T11:56:51;21.40;77.10
70548;DHT22;58099;43.406;3.698;2023-04-15T11:59:19;21.40;78.10
70548;DHT22;58099;43.406;3.698;2023-04-15T12:01:44;21.50;79.10
70548;DHT22;58099;43.406;3.698;2023-04-15T12:04:12;21.40;79.40
70548;DHT22;58099;43.406;3.698;2023-04-15T12:06:39;21.30;78.20
70548;DHT22;58099;43.406;3.698;2023-04-15T12:11:34;21.40;77.60
70548;DHT22;58099;43.406;3.698;2023-04-15T12:14:12;21.00;77.30
70548;DHT22;58099;43.406;3.698;2023-04-15T12:16:43;21.30;77.60
70548;DHT22;58099;43.406;3.698;2023-04-15T12:19:11;20.60;78.30
70548;DHT22;58099;43.406;3.698;2023-04-15T12:21:40;20.60;77.30
70548;DHT22;58099;43.406;3.698;2023-04-15T12:24:08;20.30;79.40
70548;DHT22;58099;43.406;3.698;2023-04-15T12:26:45;20.30;78.00
70548;DHT22;58099;43.406;3.698;2023-04-15T12:29:12;20.40;78.70
70548;DHT22;58099;43.406;3.698;2023-04-15T12:31:55;20.40;79.40
70548;DHT22;58099;43.406;3.698;2023-04-15T12:34:32;20.50;78.40
70548;DHT22;58099;43.406;3.698;2023-04-15T12:36:59;20.10;77.40
70548;DHT22;58099;43.406;3.698;2023-04-15T12:39:27;19.70;78.00
70548;DHT22;58099;43.406;3.698;2023-04-15T12:41:53;19.50;78.90
70548;DHT22;58099;43.406;3.698;2023-04-15T12:44:22;19.20;78.90
70548;DHT22;58099;43.406;3.698;2023-04-15T12:46:49;19.60;78.80
70548;DHT22;58099;43.406;3.698;2023-04-15T13:16:15;20.10;78.70
70548;DHT22;58099;43.406;3.698;2023-04-15T13:18:40;20.30;79.20
70548;DHT22;58099;43.406;3.698;2023-04-15T13:21:06;20.20;76.70
70548;DHT22;58099;43.406;3.698;2023-04-15T13:23:32;20.10;75.70
70548;DHT22;58099;43.406;3.698;2023-04-15T13:25:58;19.70;75.00
70548;DHT22;58099;43.406;3.698;2023-04-15T13:28:24;19.40;75.60
70548;DHT22;58099;43.406;3.698;2023-04-15T13:30:50;19.60;75.90
70548;DHT22;58099;43.406;3.698;2023-04-15T13:33:16;19.50;74.80
70548;DHT22;58099;43.406;3.698;2023-04-15T13:35:42;19.30;76.60
70548;DHT22;58099;43.406;3.698;2023-04-15T13:38:07;19.30;75.50
70548;DHT22;58099;43.406;3.698;2023-04-15T13:40:33;19.60;76.30
70548;DHT22;58099;43.406;3.698;2023-04-15T13:42:59;19.50;75.40
70548;DHT22;58099;43.406;3.698;2023-04-15T13:45:25;19.30;75.70
70548;DHT22;58099;43.406;3.698;2023-04-15T13:47:51;19.10;75.40
70548;DHT22;58099;43.406;3.698;2023-04-15T13:50:17;18.60;77.20
70548;DHT22;58099;43.406;3.698;2023-04-15T13:52:43;18.50;77.50
70548;DHT22;58099;43.406;3.698;2023-04-15T13:55:09;18.60;77.70
70548;DHT22;58099;43.406;3.698;2023-04-15T13:57:35;18.90;77.80
70548;DHT22;58099;43.406;3.698;2023-04-15T14:00:02;19.10;77.50
70548;DHT22;58099;43.406;3.698;2023-04-15T14:02:29;19.30;76.90
70548;DHT22;58099;43.406;3.698;2023-04-15T14:04:55;19.50;76.70
70548;DHT22;58099;43.406;3.698;2023-04-15T14:07:22;19.50;75.90
70548;DHT22;58099;43.406;3.698;2023-04-15T14:09:47;19.40;76.40
70548;DHT22;58099;43.406;3.698;2023-04-15T14:12:14;19.30;76.60
70548;DHT22;58099;43.406;3.698;2023-04-15T14:14:39;19.20;75.40
70548;DHT22;58099;43.406;3.698;2023-04-15T14:17:05;19.10;75.70
70548;DHT22;58099;43.406;3.698;2023-04-15T14:19:34;19.20;77.00
70548;DHT22;58099;43.406;3.698;2023-04-15T14:22:00;19.30;76.40
70548;DHT22;58099;43.406;3.698;2023-04-15T14:24:26;19.30;76.10
70548;DHT22;58099;43.406;3.698;2023-04-15T14:26:52;19.30;75.80
70548;DHT22;58099;43.406;3.698;2023-04-15T14:29:18;19.40;77.70
70548;DHT22;58099;43.406;3.698;2023-04-15T14:31:44;19.40;75.80
70548;DHT22;58099;43.406;3.698;2023-04-15T14:34:10;19.30;75.10
70548;DHT22;58099;43.406;3.698;2023-04-15T14:36:36;19.20;75.40
70548;DHT22;58099;43.406;3.698;2023-04-15T14:39:03;19.20;76.20
70548;DHT22;58099;43.406;3.698;2023-04-15T14:41:29;19.10;76.50
70548;DHT22;58099;43.406;3.698;2023-04-15T14:43:55;19.10;76.20
70548;DHT22;58099;43.406;3.698;2023-04-15T14:46:21;18.90;75.90
70548;DHT22;58099;43.406;3.698;2023-04-15T14:48:47;19.00;75.40
70548;DHT22;58099;43.406;3.698;2023-04-15T14:51:13;18.90;73.40
70548;DHT22;58099;43.406;3.698;2023-04-15T14:53:39;18.80;74.70
70548;DHT22;58099;43.406;3.698;2023-04-15T14:56:05;18.90;75.90
70548;DHT22;58099;43.406;3.698;2023-04-15T14:58:30;18.90;75.90
70548;DHT22;58099;43.406;3.698;2023-04-15T15:00:57;19.00;75.90
70548;DHT22;58099;43.406;3.698;2023-04-15T15:03:23;18.80;75.60
70548;DHT22;58099;43.406;3.698;2023-04-15T15:05:49;18.80;78.30
70548;DHT22;58099;43.406;3.698;2023-04-15T15:08:15;18.90;78.30
70548;DHT22;58099;43.406;3.698;2023-04-15T15:10:40;18.90;78.30
70548;DHT22;58099;43.406;3.698;2023-04-15T15:13:08;18.70;77.10
70548;DHT22;58099;43.406;3.698;2023-04-15T15:15:36;18.60;76.20
70548;DHT22;58099;43.406;3.698;2023-04-15T15:18:03;18.60;75.60
70548;DHT22;58099;43.406;3.698;2023-04-15T15:20:29;18.40;74.10
70548;DHT22;58099;43.406;3.698;2023-04-15T15:22:55;18.40;75.40
70548;DHT22;58099;43.406;3.698;2023-04-15T15:25:21;18.50;77.00
70548;DHT22;58099;43.406;3.698;2023-04-15T15:27:47;18.50;76.50
70548;DHT22;58099;43.406;3.698;2023-04-15T15:30:13;18.50;76.40
70548;DHT22;58099;43.406;3.698;2023-04-15T15:32:40;18.60;76.00
70548;DHT22;58099;43.406;3.698;2023-04-15T15:35:06;18.50;76.00
70548;DHT22;58099;43.406;3.698;2023-04-15T15:37:32;18.30;75.70
70548;DHT22;58099;43.406;3.698;2023-04-15T15:39:58;18.30;75.80
70548;DHT22;58099;43.406;3.698;2023-04-15T15:42:25;18.40;76.90
70548;DHT22;58099;43.406;3.698;2023-04-15T15:44:51;18.30;75.80
70548;DHT22;58099;43.406;3.698;2023-04-15T15:47:18;18.10;76.30
70548;DHT22;58099;43.406;3.698;2023-04-15T15:49:44;18.10;76.40
70548;DHT22;58099;43.406;3.698;2023-04-15T15:52:11;18.10;77.80
70548;DHT22;58099;43.406;3.698;2023-04-15T15:54:38;18.30;76.60
70548;DHT22;58099;43.406;3.698;2023-04-15T15:57:03;18.30;76.40
70548;DHT22;58099;43.406;3.698;2023-04-15T15:59:29;18.10;76.40
70548;DHT22;58099;43.406;3.698;2023-04-15T16:01:55;18.00;77.50
70548;DHT22;58099;43.406;3.698;2023-04-15T16:04:20;18.00;79.30
70548;DHT22;58099;43.406;3.698;2023-04-15T16:06:46;18.10;77.90
70548;DHT22;58099;43.406;3.698;2023-04-15T16:09:12;18.10;78.10
70548;DHT22;58099;43.406;3.698;2023-04-15T16:11:38;18.10;75.80
70548;DHT22;58099;43.406;3.698;2023-04-15T16:14:04;18.00;77.70
70548;DHT22;58099;43.406;3.698;2023-04-15T16:16:30;18.00;77.10
70548;DHT22;58099;43.406;3.698;2023-04-15T16:18:58;17.90;76.80
70548;DHT22;58099;43.406;3.698;2023-04-15T16:21:24;17.80;77.50
70548;DHT22;58099;43.406;3.698;2023-04-15T16:23:52;17.80;76.90
70548;DHT22;58099;43.406;3.698;2023-04-15T16:26:17;17.80;77.10
70548;DHT22;58099;43.406;3.698;2023-04-15T16:28:43;17.70;77.60
70548;DHT22;58099;43.406;3.698;2023-04-15T16:31:12;17.70;77.50
70548;DHT22;58099;43.406;3.698;2023-04-15T16:33:38;17.70;77.00
70548;DHT22;58099;43.406;3.698;2023-04-15T16:36:04;17.70;76.30
70548;DHT22;58099;43.406;3.698;2023-04-15T16:38:30;17.60;76.50
70548;DHT22;58099;43.406;3.698;2023-04-15T16:41:00;17.50;77.00
70548;DHT22;58099;43.406;3.698;2023-04-15T16:43:26;17.50;77.00
70548;DHT22;58099;43.406;3.698;2023-04-15T16:45:52;17.40;78.30
70548;DHT22;58099;43.406;3.698;2023-04-15T16:48:18;17.40;77.80
70548;DHT22;58099;43.406;3.698;2023-04-15T16:50:45;17.50;77.50
70548;DHT22;58099;43.406;3.698;2023-04-15T16:53:11;17.50;78.60
70548;DHT22;58099;43.406;3.698;2023-04-15T16:55:38;17.40;78.40
70548;DHT22;58099;43.406;3.698;2023-04-15T16:58:03;17.40;77.90
70548;DHT22;58099;43.406;3.698;2023-04-15T17:00:30;17.40;77.50
70548;DHT22;58099;43.406;3.698;2023-04-15T17:02:56;17.40;78.40
70548;DHT22;58099;43.406;3.698;2023-04-15T17:05:21;17.30;78.00
70548;DHT22;58099;43.406;3.698;2023-04-15T17:07:47;17.30;78.00
70548;DHT22;58099;43.406;3.698;2023-04-15T17:10:13;17.30;77.60
70548;DHT22;58099;43.406;3.698;2023-04-15T17:12:39;17.30;78.90
70548;DHT22;58099;43.406;3.698;2023-04-15T17:15:05;17.30;78.80
70548;DHT22;58099;43.406;3.698;2023-04-15T17:17:31;17.20;77.60
70548;DHT22;58099;43.406;3.698;2023-04-15T17:19:57;17.20;78.60
70548;DHT22;58099;43.406;3.698;2023-04-15T17:22:23;17.20;78.90
70548;DHT22;58099;43.406;3.698;2023-04-15T17:24:48;17.10;78.50
70548;DHT22;58099;43.406;3.698;2023-04-15T17:27:14;17.10;78.70
70548;DHT22;58099;43.406;3.698;2023-04-15T17:29:40;17.00;79.50
70548;DHT22;58099;43.406;3.698;2023-04-15T17:32:06;16.90;79.20
70548;DHT22;58099;43.406;3.698;2023-04-15T17:34:32;16.80;79.90
70548;DHT22;58099;43.406;3.698;2023-04-15T17:36:57;16.80;80.70
70548;DHT22;58099;43.406;3.698;2023-04-15T17:39:23;16.80;81.10
70548;DHT22;58099;43.406;3.698;2023-04-15T17:41:49;16.80;78.80
70548;DHT22;58099;43.406;3.698;2023-04-15T17:44:14;16.70;78.90
70548;DHT22;58099;43.406;3.698;2023-04-15T17:46:40;16.70;79.90
70548;DHT22;58099;43.406;3.698;2023-04-15T17:49:06;16.70;80.30
70548;DHT22;58099;43.406;3.698;2023-04-15T17:51:31;16.70;80.80
70548;DHT22;58099;43.406;3.698;2023-04-15T17:53:57;16.60;80.60
70548;DHT22;58099;43.406;3.698;2023-04-15T17:56:23;16.60;80.70
70548;DHT22;58099;43.406;3.698;2023-04-15T17:58:51;16.60;81.60
70548;DHT22;58099;43.406;3.698;2023-04-15T18:01:16;16.50;80.60
70548;DHT22;58099;43.406;3.698;2023-04-15T18:03:43;16.50;79.90
70548;DHT22;58099;43.406;3.698;2023-04-15T18:06:10;16.40;82.30
70548;DHT22;58099;43.406;3.698;2023-04-15T18:08:36;16.30;81.00
70548;DHT22;58099;43.406;3.698;2023-04-15T18:11:02;16.30;82.20
70548;DHT22;58099;43.406;3.698;2023-04-15T18:13:27;16.30;82.10
70548;DHT22;58099;43.406;3.698;2023-04-15T18:15:54;16.20;81.60
70548;DHT22;58099;43.406;3.698;2023-04-15T18:18:20;16.20;81.90
70548;DHT22;58099;43.406;3.698;2023-04-15T18:20:45;16.20;81.50
70548;DHT22;58099;43.406;3.698;2023-04-15T18:23:11;16.10;81.80
70548;DHT22;58099;43.406;3.698;2023-04-15T18:25:39;16.10;83.90
70548;DHT22;58099;43.406;3.698;2023-04-15T18:28:08;16.00;81.90
70548;DHT22;58099;43.406;3.698;2023-04-15T18:30:34;16.00;81.90
70548;DHT22;58099;43.406;3.698;2023-04-15T18:32:59;16.00;82.40
70548;DHT22;58099;43.406;3.698;2023-04-15T18:35:25;15.90;84.90
70548;DHT22;58099;43.406;3.698;2023-04-15T18:37:57;15.80;85.10
70548;DHT22;58099;43.406;3.698;2023-04-15T18:40:23;15.80;84.60
70548;DHT22;58099;43.406;3.698;2023-04-15T18:42:49;15.80;84.20
70548;DHT22;58099;43.406;3.698;2023-04-15T18:45:15;15.70;84.70
70548;DHT22;58099;43.406;3.698;2023-04-15T18:47:40;15.70;85.80
70548;DHT22;58099;43.406;3.698;2023-04-15T18:50:07;15.70;84.50
70548;DHT22;58099;43.406;3.698;2023-04-15T18:52:33;15.60;85.10
70548;DHT22;58099;43.406;3.698;2023-04-15T18:54:59;15.70;86.10
70548;DHT22;58099;43.406;3.698;2023-04-15T18:57:25;15.70;84.70
70548;DHT22;58099;43.406;3.698;2023-04-15T18:59:51;15.60;83.90
70548;DHT22;58099;43.406;3.698;2023-04-15T19:02:17;15.60;84.30
70548;DHT22;58099;43.406;3.698;2023-04-15T19:04:43;15.50;84.70
70548;DHT22;58099;43.406;3.698;2023-04-15T19:07:08;15.50;85.40
70548;DHT22;58099;43.406;3.698;2023-04-15T19:09:34;15.50;83.50
70548;DHT22;58099;43.406;3.698;2023-04-15T19:12:01;15.50;85.10
70548;DHT22;58099;43.406;3.698;2023-04-15T19:14:27;15.50;84.60
70548;DHT22;58099;43.406;3.698;2023-04-15T19:16:53;15.50;85.20
70548;DHT22;58099;43.406;3.698;2023-04-15T19:19:19;15.50;84.20
70548;DHT22;58099;43.406;3.698;2023-04-15T19:21:45;15.50;84.00
70548;DHT22;58099;43.406;3.698;2023-04-15T19:24:14;15.50;85.20
70548;DHT22;58099;43.406;3.698;2023-04-15T19:26:41;15.50;85.10
70548;DHT22;58099;43.406;3.698;2023-04-15T19:29:06;15.50;85.40
70548;DHT22;58099;43.406;3.698;2023-04-15T19:31:32;15.50;84.70
70548;DHT22;58099;43.406;3.698;2023-04-15T19:33:58;15.40;83.70
70548;DHT22;58099;43.406;3.698;2023-04-15T19:36:23;15.40;84.70
70548;DHT22;58099;43.406;3.698;2023-04-15T19:38:49;15.40;85.10
70548;DHT22;58099;43.406;3.698;2023-04-15T19:41:15;15.40;83.50
70548;DHT22;58099;43.406;3.698;2023-04-15T19:43:41;15.40;84.60
70548;DHT22;58099;43.406;3.698;2023-04-15T19:46:07;15.40;84.80
70548;DHT22;58099;43.406;3.698;2023-04-15T19:48:32;15.30;84.50
70548;DHT22;58099;43.406;3.698;2023-04-15T19:50:58;15.40;85.00
70548;DHT22;58099;43.406;3.698;2023-04-15T19:53:24;15.40;85.70
70548;DHT22;58099;43.406;3.698;2023-04-15T19:55:50;15.40;85.00
70548;DHT22;58099;43.406;3.698;2023-04-15T19:58:16;15.30;85.50
70548;DHT22;58099;43.406;3.698;2023-04-15T20:00:42;15.30;85.30
70548;DHT22;58099;43.406;3.698;2023-04-15T20:03:07;15.30;85.90
70548;DHT22;58099;43.406;3.698;2023-04-15T20:05:33;15.20;85.20
70548;DHT22;58099;43.406;3.698;2023-04-15T20:08:00;15.20;85.80
70548;DHT22;58099;43.406;3.698;2023-04-15T20:10:26;15.20;85.90
70548;DHT22;58099;43.406;3.698;2023-04-15T20:12:51;15.20;86.50
70548;DHT22;58099;43.406;3.698;2023-04-15T20:15:17;15.10;86.30
70548;DHT22;58099;43.406;3.698;2023-04-15T20:17:43;15.10;86.40
70548;DHT22;58099;43.406;3.698;2023-04-15T20:20:09;15.10;87.10
70548;DHT22;58099;43.406;3.698;2023-04-15T20:22:34;15.00;87.40
70548;DHT22;58099;43.406;3.698;2023-04-15T20:25:01;15.00;87.90
70548;DHT22;58099;43.406;3.698;2023-04-15T20:27:27;15.00;87.10
70548;DHT22;58099;43.406;3.698;2023-04-15T20:29:53;15.00;86.80
70548;DHT22;58099;43.406;3.698;2023-04-15T20:32:18;15.00;86.70
70548;DHT22;58099;43.406;3.698;2023-04-15T20:34:44;14.90;88.20
70548;DHT22;58099;43.406;3.698;2023-04-15T20:37:11;14.90;88.50
70548;DHT22;58099;43.406;3.698;2023-04-15T20:39:37;14.90;89.10
70548;DHT22;58099;43.406;3.698;2023-04-15T20:42:03;14.90;88.90
70548;DHT22;58099;43.406;3.698;2023-04-15T20:44:28;14.90;88.40
70548;DHT22;58099;43.406;3.698;2023-04-15T20:46:54;14.80;88.20
70548;DHT22;58099;43.406;3.698;2023-04-15T20:49:20;14.90;89.10
70548;DHT22;58099;43.406;3.698;2023-04-15T20:51:47;14.90;88.40
70548;DHT22;58099;43.406;3.698;2023-04-15T20:54:13;14.80;88.20
70548;DHT22;58099;43.406;3.698;2023-04-15T20:56:39;14.80;87.90
70548;DHT22;58099;43.406;3.698;2023-04-15T20:59:05;14.80;89.40
70548;DHT22;58099;43.406;3.698;2023-04-15T21:01:30;14.80;88.70
70548;DHT22;58099;43.406;3.698;2023-04-15T21:03:57;14.70;87.70
70548;DHT22;58099;43.406;3.698;2023-04-15T21:06:23;14.70;87.90
70548;DHT22;58099;43.406;3.698;2023-04-15T21:08:49;14.70;88.40
70548;DHT22;58099;43.406;3.698;2023-04-15T21:11:17;14.70;89.30
70548;DHT22;58099;43.406;3.698;2023-04-15T21:13:42;14.70;88.40
70548;DHT22;58099;43.406;3.698;2023-04-15T21:16:10;14.60;89.00
70548;DHT22;58099;43.406;3.698;2023-04-15T21:18:36;14.60;88.80
70548;DHT22;58099;43.406;3.698;2023-04-15T21:21:02;14.60;88.90
70548;DHT22;58099;43.406;3.698;2023-04-15T21:23:28;14.60;88.40
70548;DHT22;58099;43.406;3.698;2023-04-15T21:25:54;14.60;88.90
70548;DHT22;58099;43.406;3.698;2023-04-15T21:28:20;14.50;89.70
70548;DHT22;58099;43.406;3.698;2023-04-15T21:30:47;14.50;89.60
70548;DHT22;58099;43.406;3.698;2023-04-15T21:33:14;14.50;89.10
70548;DHT22;58099;43.406;3.698;2023-04-15T21:35:40;14.50;89.90
70548;DHT22;58099;43.406;3.698;2023-04-15T21:38:05;14.50;90.20
70548;DHT22;58099;43.406;3.698;2023-04-15T21:40:31;14.40;90.40
70548;DHT22;58099;43.406;3.698;2023-04-15T21:42:57;14.40;90.70
70548;DHT22;58099;43.406;3.698;2023-04-15T21:45:22;14.30;90.20
70548;DHT22;58099;43.406;3.698;2023-04-15T21:47:48;14.30;90.50
70548;DHT22;58099;43.406;3.698;2023-04-15T21:50:14;14.30;90.70
70548;DHT22;58099;43.406;3.698;2023-04-15T21:52:39;14.30;90.60
70548;DHT22;58099;43.406;3.698;2023-04-15T21:55:06;14.20;91.00
70548;DHT22;58099;43.406;3.698;2023-04-15T21:57:32;14.30;90.80
70548;DHT22;58099;43.406;3.698;2023-04-15T21:59:59;14.20;90.70
70548;DHT22;58099;43.406;3.698;2023-04-15T22:02:25;14.30;90.50
70548;DHT22;58099;43.406;3.698;2023-04-15T22:04:51;14.30;90.70
70548;DHT22;58099;43.406;3.698;2023-04-15T22:07:16;14.20;90.80
70548;DHT22;58099;43.406;3.698;2023-04-15T22:09:42;14.20;90.80
70548;DHT22;58099;43.406;3.698;2023-04-15T22:12:08;14.10;90.90
70548;DHT22;58099;43.406;3.698;2023-04-15T22:14:33;14.10;90.90
70548;DHT22;58099;43.406;3.698;2023-04-15T22:16:59;14.10;91.00
70548;DHT22;58099;43.406;3.698;2023-04-15T22:19:25;14.00;91.30
70548;DHT22;58099;43.406;3.698;2023-04-15T22:21:51;14.00;90.90
70548;DHT22;58099;43.406;3.698;2023-04-15T22:24:16;14.00;90.80
70548;DHT22;58099;43.406;3.698;2023-04-15T22:26:42;13.90;90.90
70548;DHT22;58099;43.406;3.698;2023-04-15T22:29:08;13.90;91.20
70548;DHT22;58099;43.406;3.698;2023-04-15T22:31:34;13.90;91.40
70548;DHT22;58099;43.406;3.698;2023-04-15T22:33:59;13.90;91.90
70548;DHT22;58099;43.406;3.698;2023-04-15T22:36:25;13.90;91.70
70548;DHT22;58099;43.406;3.698;2023-04-15T22:38:51;13.90;91.30
70548;DHT22;58099;43.406;3.698;2023-04-15T22:41:17;13.90;91.40
70548;DHT22;58099;43.406;3.698;2023-04-15T22:43:45;13.90;91.40
70548;DHT22;58099;43.406;3.698;2023-04-15T22:46:10;13.80;91.60
70548;DHT22;58099;43.406;3.698;2023-04-15T22:48:36;13.80;91.60
70548;DHT22;58099;43.406;3.698;2023-04-15T22:51:02;13.80;91.30
70548;DHT22;58099;43.406;3.698;2023-04-15T22:53:28;13.80;91.80
70548;DHT22;58099;43.406;3.698;2023-04-15T22:55:53;13.70;91.70
70548;DHT22;58099;43.406;3.698;2023-04-15T22:58:19;13.70;91.70
70548;DHT22;58099;43.406;3.698;2023-04-15T23:00:45;13.60;91.80
70548;DHT22;58099;43.406;3.698;2023-04-15T23:03:11;13.70;92.00
70548;DHT22;58099;43.406;3.698;2023-04-15T23:05:36;13.70;91.80
70548;DHT22;58099;43.406;3.698;2023-04-15T23:08:04;13.70;91.80
70548;DHT22;58099;43.406;3.698;2023-04-15T23:10:30;13.60;91.70
70548;DHT22;58099;43.406;3.698;2023-04-15T23:12:55;13.60;91.80
70548;DHT22;58099;43.406;3.698;2023-04-15T23:15:21;13.60;91.70
70548;DHT22;58099;43.406;3.698;2023-04-15T23:17:47;13.60;92.20
70548;DHT22;58099;43.406;3.698;2023-04-15T23:20:12;13.60;92.20
70548;DHT22;58099;43.406;3.698;2023-04-15T23:22:41;13.60;92.20
70548;DHT22;58099;43.406;3.698;2023-04-15T23:25:07;13.50;92.20
70548;DHT22;58099;43.406;3.698;2023-04-15T23:27:34;13.50;92.40
70548;DHT22;58099;43.406;3.698;2023-04-15T23:30:00;13.50;92.10
70548;DHT22;58099;43.406;3.698;2023-04-15T23:32:25;13.50;92.20
70548;DHT22;58099;43.406;3.698;2023-04-15T23:34:52;13.50;92.00
70548;DHT22;58099;43.406;3.698;2023-04-15T23:37:18;13.50;92.00
70548;DHT22;58099;43.406;3.698;2023-04-15T23:39:44;13.40;92.20
70548;DHT22;58099;43.406;3.698;2023-04-15T23:42:10;13.40;92.40
70548;DHT22;58099;43.406;3.698;2023-04-15T23:44:35;13.40;92.40
70548;DHT22;58099;43.406;3.698;2023-04-15T23:47:03;13.40;92.20
70548;DHT22;58099;43.406;3.698;2023-04-15T23:49:29;13.40;92.40
70548;DHT22;58099;43.406;3.698;2023-04-15T23:51:55;13.30;92.30
70548;DHT22;58099;43.406;3.698;2023-04-15T23:54:22;13.30;92.30
70548;DHT22;58099;43.406;3.698;2023-04-15T23:56:47;13.40;92.60
70548;DHT22;58099;43.406;3.698;2023-04-15T23:59:13;13.30;92.60
